Time;durP1;ratioP1;P1;durP2;ratioP2;P2;SDS_P1;SDS_P2;PMS_P1;PMS_P2;Temp;Humidity;BMP_temperature;BMP_pressure;BME280_temperature;BME280_humidity;BME280_pressure;Samples;Min_cycle;Max_cycle;Signal;HPM_P1;HPM_P2
2024/03/16 00:00:42;;;;;;;1.60;1.10;;;8.70;99.90;;;;;;5049406;28;20203;-74
2024/03/16 00:03:09;;;;;;;1.10;1.00;;;8.70;99.90;;;;;;5043221;28;20234;-74
2024/03/16 00:05:37;;;;;;;1.20;0.90;;;8.70;99.90;;;;;;5041719;28;20225;-74
2024/03/16 00:08:04;;;;;;;0.93;0.82;;;8.70;99.90;;;;;;5043141;28;20218;-74
2024/03/16 00:10:32;;;;;;;1.00;0.70;;;8.70;99.90;;;;;;5040696;28;20211;-74
2024/03/16 00:12:58;;;;;;;1.02;0.80;;;8.70;99.90;;;;;;5041782;28;20285;-75
2024/03/16 00:15:26;;;;;;;0.90;0.73;;;8.70;99.90;;;;;;5039784;28;20691;-74
2024/03/16 00:17:53;;;;;;;1.05;0.93;;;8.70;99.90;;;;;;5043014;28;20211;-74
2024/03/16 00:20:20;;;;;;;1.05;0.95;;;8.70;99.90;;;;;;5039017;28;20229;-74
2024/03/16 00:22:47;;;;;;;1.15;0.70;;;8.70;99.90;;;;;;5049031;28;20225;-74
2024/03/16 00:25:15;;;;;;;1.33;0.80;;;8.70;99.90;;;;;;5048282;28;20227;-75
2024/03/16 00:27:42;;;;;;;0.80;0.60;;;8.70;99.90;;;;;;5053175;28;20208;-75
2024/03/16 00:30:10;;;;;;;0.75;0.60;;;8.70;99.90;;;;;;5052270;28;20206;-74
2024/03/16 00:32:37;;;;;;;0.80;0.70;;;8.70;99.90;;;;;;5052955;28;20652;-74
2024/03/16 00:35:04;;;;;;;1.10;0.73;;;8.60;99.90;;;;;;5052858;28;20235;-75
2024/03/16 00:37:31;;;;;;;0.80;0.70;;;8.60;99.90;;;;;;5053028;28;20219;-75
2024/03/16 00:39:58;;;;;;;1.00;0.80;;;8.50;99.90;;;;;;5052377;28;20625;-75
2024/03/16 00:42:25;;;;;;;0.90;0.70;;;8.50;99.90;;;;;;5052273;28;20226;-75
2024/03/16 00:44:52;;;;;;;1.00;0.70;;;8.40;99.90;;;;;;5052729;28;20722;-74
2024/03/16 00:47:19;;;;;;;1.98;1.05;;;8.40;99.90;;;;;;5052788;28;20237;-75
2024/03/16 00:49:47;;;;;;;1.00;0.90;;;8.40;99.90;;;;;;5052528;28;20214;-74
2024/03/16 00:52:14;;;;;;;0.70;0.60;;;8.30;99.90;;;;;;5052306;28;20223;-75
2024/03/16 00:54:41;;;;;;;0.90;0.80;;;8.30;99.90;;;;;;5051230;28;20204;-75
2024/03/16 00:57:08;;;;;;;1.10;1.00;;;8.30;99.90;;;;;;5052401;28;20291;-74
2024/03/16 00:59:35;;;;;;;0.90;0.80;;;8.30;99.90;;;;;;5052503;28;20217;-74
2024/03/16 01:02:03;;;;;;;0.80;0.70;;;8.30;99.90;;;;;;5052131;28;20233;-75
2024/03/16 01:04:30;;;;;;;0.80;0.70;;;8.20;99.90;;;;;;5052967;28;20207;-75
2024/03/16 01:06:57;;;;;;;0.85;0.73;;;8.20;99.90;;;;;;5052445;28;20207;-75
2024/03/16 01:09:25;;;;;;;1.90;0.80;;;8.10;99.90;;;;;;5052366;28;20219;-75
2024/03/16 01:11:52;;;;;;;0.80;0.70;;;8.10;99.90;;;;;;5032444;28;20602;-75
2024/03/16 01:14:18;;;;;;;2.50;0.80;;;8.10;99.90;;;;;;5036737;28;20681;-75
2024/03/16 01:16:45;;;;;;;1.88;0.80;;;8.10;99.90;;;;;;5044871;28;20202;-75
2024/03/16 01:19:12;;;;;;;2.45;0.90;;;8.10;99.90;;;;;;5040445;28;20231;-75
2024/03/16 01:21:39;;;;;;;0.70;0.70;;;8.10;99.90;;;;;;5039130;28;20225;-75
2024/03/16 01:24:06;;;;;;;0.82;0.82;;;8.10;99.90;;;;;;5042872;28;20215;-75
2024/03/16 01:26:33;;;;;;;0.80;0.60;;;8.10;99.90;;;;;;5042129;28;20231;-75
2024/03/16 01:29:01;;;;;;;0.70;0.60;;;8.10;99.90;;;;;;5044097;28;20203;-75
2024/03/16 01:31:29;;;;;;;0.80;0.70;;;8.10;99.90;;;;;;5042494;28;20229;-74
2024/03/16 01:33:56;;;;;;;0.70;0.60;;;8.10;99.90;;;;;;5043748;28;20260;-74
2024/03/16 01:36:23;;;;;;;0.90;0.77;;;8.10;99.90;;;;;;5040363;28;20199;-75
2024/03/16 01:38:50;;;;;;;0.70;0.60;;;8.10;99.90;;;;;;5051774;28;20683;-75
2024/03/16 01:41:17;;;;;;;1.05;0.80;;;8.00;99.90;;;;;;5054940;28;20223;-75
2024/03/16 01:43:47;;;;;;;1.23;1.02;;;8.00;99.90;;;;;;5055927;28;20206;-75
2024/03/16 01:46:15;;;;;;;1.13;0.73;;;8.00;99.90;;;;;;5055590;28;20274;-75
2024/03/16 01:48:42;;;;;;;0.90;0.73;;;8.10;99.90;;;;;;5055938;28;20640;-75
2024/03/16 01:51:09;;;;;;;1.00;0.90;;;8.00;99.90;;;;;;5054846;28;20207;-75
2024/03/16 01:53:36;;;;;;;2.00;0.88;;;8.00;99.90;;;;;;5055196;28;20208;-75
2024/03/16 01:56:03;;;;;;;1.25;0.90;;;8.00;99.90;;;;;;5055279;28;20223;-75
2024/03/16 01:58:30;;;;;;;2.55;0.90;;;8.00;99.90;;;;;;5055772;28;20371;-75
2024/03/16 02:00:57;;;;;;;0.70;0.70;;;8.00;99.90;;;;;;5055124;28;20239;-75
2024/03/16 02:03:23;;;;;;;1.00;0.73;;;8.10;99.90;;;;;;5052005;28;20691;-75
2024/03/16 02:05:50;;;;;;;0.90;0.73;;;8.00;99.90;;;;;;5050978;28;20226;-75
2024/03/16 02:08:17;;;;;;;2.45;1.00;;;8.10;99.90;;;;;;5055216;28;20215;-75
2024/03/16 02:10:44;;;;;;;0.70;0.60;;;8.00;99.90;;;;;;5054845;28;20694;-75
2024/03/16 02:13:11;;;;;;;0.90;0.80;;;8.10;99.90;;;;;;5054902;28;20234;-75
2024/03/16 02:15:38;;;;;;;1.45;0.70;;;8.00;99.90;;;;;;5055349;28;20691;-75
2024/03/16 02:18:05;;;;;;;0.80;0.73;;;8.00;99.90;;;;;;5054850;28;20217;-75
2024/03/16 02:20:32;;;;;;;1.13;0.80;;;8.00;99.90;;;;;;5055002;28;20328;-75
2024/03/16 02:22:59;;;;;;;1.05;0.90;;;8.00;99.90;;;;;;5054848;28;20238;-75
2024/03/16 02:25:26;;;;;;;0.80;0.75;;;8.00;99.90;;;;;;5055038;28;20299;-75
2024/03/16 02:27:53;;;;;;;1.95;0.70;;;8.00;99.90;;;;;;5055088;28;20206;-75
2024/03/16 02:30:20;;;;;;;0.80;0.75;;;8.00;99.90;;;;;;5054438;28;20204;-75
2024/03/16 02:32:47;;;;;;;1.10;0.80;;;8.00;99.90;;;;;;5054579;28;20233;-75
2024/03/16 02:35:14;;;;;;;1.00;0.82;;;8.00;99.90;;;;;;5053958;28;20204;-75
2024/03/16 02:37:40;;;;;;;0.70;0.60;;;8.00;99.90;;;;;;5054956;28;20261;-75
2024/03/16 02:40:11;;;;;;;0.90;0.70;;;8.00;99.90;;;;;;5054304;28;20215;-75
2024/03/16 02:42:38;;;;;;;1.67;0.85;;;8.00;99.90;;;;;;5055027;28;20247;-75
2024/03/16 02:45:05;;;;;;;0.90;0.70;;;8.00;99.90;;;;;;5054557;28;20212;-75
2024/03/16 02:47:32;;;;;;;0.77;0.70;;;8.00;99.90;;;;;;5054714;28;20662;-75
2024/03/16 02:50:00;;;;;;;2.08;1.00;;;8.00;99.90;;;;;;5054432;28;20209;-75
2024/03/16 02:52:27;;;;;;;0.82;0.70;;;8.00;99.90;;;;;;5051318;28;20288;-75
2024/03/16 02:54:54;;;;;;;1.15;0.70;;;8.00;99.90;;;;;;5054527;28;20582;-75
2024/03/16 02:57:22;;;;;;;0.80;0.75;;;8.00;99.90;;;;;;5054155;28;20210;-75
2024/03/16 02:59:49;;;;;;;0.90;0.80;;;7.90;99.90;;;;;;5054263;28;20236;-75
2024/03/16 03:02:16;;;;;;;0.80;0.80;;;7.90;99.90;;;;;;5053947;28;20234;-75
2024/03/16 03:04:44;;;;;;;1.08;0.75;;;7.90;99.90;;;;;;5054375;28;20675;-74
2024/03/16 03:07:11;;;;;;;1.20;0.80;;;7.90;99.90;;;;;;5054031;28;20222;-74
2024/03/16 03:09:37;;;;;;;1.35;1.00;;;7.90;99.90;;;;;;5053928;28;20207;-75
2024/03/16 03:12:04;;;;;;;0.80;0.80;;;7.90;99.90;;;;;;5053591;28;20225;-74
2024/03/16 03:14:32;;;;;;;0.80;0.70;;;7.90;99.90;;;;;;5054153;28;20568;-75
2024/03/16 03:17:00;;;;;;;0.80;0.70;;;7.90;99.90;;;;;;5054353;28;20591;-74
2024/03/16 03:19:27;;;;;;;0.90;0.80;;;7.90;99.90;;;;;;5053690;28;20302;-75
2024/03/16 03:21:54;;;;;;;0.90;0.75;;;8.00;99.90;;;;;;5053585;28;20248;-75
2024/03/16 03:24:21;;;;;;;0.90;0.80;;;8.00;99.90;;;;;;5053689;28;20207;-75
2024/03/16 03:26:48;;;;;;;1.13;0.85;;;8.00;99.90;;;;;;5053915;28;20306;-75
2024/03/16 03:29:15;;;;;;;1.60;0.77;;;8.00;99.90;;;;;;5053218;28;20585;-75
2024/03/16 03:31:42;;;;;;;0.98;0.85;;;8.10;99.90;;;;;;5053322;28;20222;-75
2024/03/16 03:34:09;;;;;;;1.08;0.80;;;8.00;99.90;;;;;;5053572;28;20217;-75
2024/03/16 03:36:35;;;;;;;1.17;0.70;;;8.00;99.90;;;;;;5053544;28;20226;-75
2024/03/16 03:39:03;;;;;;;0.77;0.70;;;8.00;99.90;;;;;;5053464;28;20208;-75
2024/03/16 03:41:29;;;;;;;0.80;0.70;;;8.00;99.90;;;;;;5052750;28;20306;-75
2024/03/16 03:43:59;;;;;;;0.88;0.82;;;8.00;99.90;;;;;;5053772;28;20216;-75
2024/03/16 03:46:39;;;;;;;0.90;0.80;;;8.10;99.90;;;;;;5053629;28;20230;-75
2024/03/16 03:49:11;;;;;;;0.90;0.73;;;8.10;99.90;;;;;;5055549;28;20212;-75
2024/03/16 03:51:39;;;;;;;0.80;0.70;;;8.10;99.90;;;;;;5054029;28;20223;-75
2024/03/16 03:54:06;;;;;;;1.33;0.70;;;8.20;99.90;;;;;;5053610;28;20204;-75
2024/03/16 03:56:33;;;;;;;2.08;0.80;;;8.20;99.90;;;;;;5053205;28;20289;-75
2024/03/16 03:59:00;;;;;;;0.98;0.88;;;8.30;99.90;;;;;;5053384;28;20641;-75
2024/03/16 04:01:27;;;;;;;1.00;0.80;;;8.30;99.90;;;;;;5052385;28;20609;-75
2024/03/16 04:03:53;;;;;;;1.33;1.13;;;8.30;99.90;;;;;;5053424;28;20208;-75
2024/03/16 04:06:20;;;;;;;1.20;0.80;;;8.30;99.90;;;;;;5052946;28;20226;-75
2024/03/16 04:08:47;;;;;;;1.60;0.90;;;8.30;99.90;;;;;;5053123;28;20211;-75
2024/03/16 04:11:14;;;;;;;1.10;0.80;;;8.30;99.90;;;;;;5052316;28;20609;-75
2024/03/16 04:13:41;;;;;;;2.50;1.58;;;8.30;99.90;;;;;;5053283;28;20236;-75
2024/03/16 04:16:09;;;;;;;0.80;0.70;;;8.40;99.90;;;;;;5053268;28;20207;-75
2024/03/16 04:18:36;;;;;;;1.83;1.15;;;8.40;99.90;;;;;;5051694;28;20615;-75
2024/03/16 04:21:06;;;;;;;0.90;0.80;;;8.40;99.90;;;;;;5052373;28;20222;-75
2024/03/16 04:23:32;;;;;;;6.57;1.45;;;8.40;99.90;;;;;;5053120;28;20204;-75
2024/03/16 04:25:59;;;;;;;1.05;0.93;;;8.40;99.90;;;;;;5053045;28;20224;-75
2024/03/16 04:28:26;;;;;;;1.10;1.00;;;8.50;99.90;;;;;;5052699;28;20660;-75
2024/03/16 04:30:53;;;;;;;0.80;0.70;;;8.50;99.90;;;;;;5052464;28;20208;-75
2024/03/16 04:33:20;;;;;;;0.90;0.80;;;8.50;99.90;;;;;;5052977;28;20211;-74
2024/03/16 04:35:46;;;;;;;2.00;0.80;;;8.60;99.90;;;;;;5053009;28;20204;-75
2024/03/16 04:38:13;;;;;;;1.77;0.85;;;8.60;99.90;;;;;;5052588;28;20211;-75
2024/03/16 04:40:42;;;;;;;1.38;1.02;;;8.80;99.90;;;;;;5052647;28;20227;-75
2024/03/16 04:43:09;;;;;;;1.52;0.90;;;8.80;99.90;;;;;;5053083;28;20220;-75
2024/03/16 04:45:36;;;;;;;0.80;0.70;;;8.80;99.90;;;;;;5052524;28;20231;-75
2024/03/16 04:48:04;;;;;;;1.65;1.10;;;8.80;99.90;;;;;;5052876;28;20226;-75
2024/03/16 04:50:31;;;;;;;2.17;1.20;;;8.80;99.90;;;;;;5052610;28;20200;-75
2024/03/16 04:52:58;;;;;;;1.42;0.80;;;8.80;99.90;;;;;;5052893;28;20231;-76
2024/03/16 04:55:24;;;;;;;0.80;0.73;;;8.80;99.90;;;;;;5052970;28;20691;-75
2024/03/16 04:57:51;;;;;;;1.20;1.10;;;8.70;99.90;;;;;;5053266;28;20196;-75
2024/03/16 05:00:19;;;;;;;1.00;0.80;;;8.70;99.90;;;;;;5056264;28;20687;-75
2024/03/16 05:02:46;;;;;;;1.42;1.23;;;8.70;99.90;;;;;;5056231;28;20219;-75
2024/03/16 05:05:12;;;;;;;0.75;0.70;;;8.60;99.90;;;;;;5056593;28;20211;-75
2024/03/16 05:07:39;;;;;;;1.00;0.80;;;8.60;99.90;;;;;;5055896;28;20237;-75
2024/03/16 05:10:08;;;;;;;1.15;0.98;;;8.60;99.90;;;;;;5056317;28;20586;-75
2024/03/16 05:12:35;;;;;;;0.90;0.80;;;8.60;99.90;;;;;;5056068;28;20600;-75
2024/03/16 05:15:02;;;;;;;0.80;0.80;;;8.60;99.90;;;;;;5056543;28;20218;-75
2024/03/16 05:17:29;;;;;;;1.20;0.82;;;8.50;99.90;;;;;;5056497;28;20211;-75
2024/03/16 05:19:57;;;;;;;2.97;1.20;;;8.50;99.90;;;;;;5056023;28;20208;-75
2024/03/16 05:22:25;;;;;;;1.20;0.90;;;8.50;99.90;;;;;;5055726;28;20231;-75
2024/03/16 05:24:52;;;;;;;1.23;0.90;;;8.40;99.90;;;;;;5044768;28;20204;-75
2024/03/16 05:27:19;;;;;;;1.30;1.20;;;8.40;99.90;;;;;;5050629;28;20226;-75
2024/03/16 05:29:46;;;;;;;1.15;1.05;;;8.40;99.90;;;;;;5055708;28;20212;-75
2024/03/16 05:32:12;;;;;;;1.40;0.95;;;8.30;99.90;;;;;;5055734;28;20601;-74
2024/03/16 05:34:39;;;;;;;0.88;0.80;;;8.40;99.90;;;;;;5055362;28;20264;-75
2024/03/16 05:37:06;;;;;;;1.45;0.90;;;8.40;99.90;;;;;;5055932;28;20206;-74
2024/03/16 05:39:33;;;;;;;1.90;1.20;;;8.40;99.90;;;;;;5054128;28;20207;-74
2024/03/16 05:42:00;;;;;;;1.25;1.15;;;8.40;99.90;;;;;;5037406;28;20603;-74
2024/03/16 05:44:27;;;;;;;1.23;0.90;;;8.40;99.90;;;;;;5037269;28;20685;-74
2024/03/16 05:46:54;;;;;;;1.33;1.05;;;8.40;99.90;;;;;;5037503;28;20223;-74
2024/03/16 05:49:20;;;;;;;1.05;0.95;;;8.40;99.90;;;;;;5036856;28;20207;-75
2024/03/16 05:51:48;;;;;;;0.88;0.80;;;8.40;99.90;;;;;;5036498;28;20236;-74
2024/03/16 05:54:14;;;;;;;1.50;1.05;;;8.40;99.90;;;;;;5037178;28;20294;-74
2024/03/16 05:56:41;;;;;;;1.67;1.00;;;8.40;99.90;;;;;;5036803;28;20222;-73
2024/03/16 05:59:09;;;;;;;1.67;0.88;;;8.40;99.90;;;;;;5036761;28;20204;-74
2024/03/16 06:01:36;;;;;;;1.00;0.80;;;8.40;99.90;;;;;;5036386;28;20228;-71
2024/03/16 06:04:03;;;;;;;2.03;0.75;;;8.40;99.90;;;;;;5036958;28;20303;-73
2024/03/16 06:06:31;;;;;;;1.05;0.90;;;8.50;99.90;;;;;;5036224;28;20243;-72
2024/03/16 06:08:58;;;;;;;1.55;0.93;;;8.50;99.90;;;;;;5036381;28;20682;-73
2024/03/16 06:11:26;;;;;;;1.98;1.13;;;8.50;99.90;;;;;;5034773;28;20256;-73
2024/03/16 06:13:53;;;;;;;0.80;0.70;;;8.50;99.90;;;;;;5040190;28;20587;-73
2024/03/16 06:16:21;;;;;;;1.10;1.00;;;8.50;99.90;;;;;;5039971;28;20216;-73
2024/03/16 06:18:48;;;;;;;1.00;0.70;;;8.60;99.90;;;;;;5035927;28;20212;-73
2024/03/16 06:21:15;;;;;;;0.70;0.70;;;8.60;99.90;;;;;;5042357;28;20317;-73
2024/03/16 06:23:42;;;;;;;1.80;0.90;;;8.60;99.90;;;;;;5054858;28;20211;-73
2024/03/16 06:26:16;;;;;;;5.93;1.05;;;8.70;99.90;;;;;;5055257;28;20215;-73
2024/03/16 06:28:47;;;;;;;4.15;1.08;;;8.70;99.90;;;;;;5056029;28;20260;-72
2024/03/16 06:31:13;;;;;;;1.00;0.80;;;8.70;99.90;;;;;;5054935;28;20224;-73
2024/03/16 06:33:45;;;;;;;0.80;0.70;;;8.70;99.90;;;;;;5054729;28;20214;-73
2024/03/16 06:36:12;;;;;;;0.93;0.80;;;8.80;99.90;;;;;;5049925;28;20296;-73
2024/03/16 06:38:39;;;;;;;0.80;0.70;;;8.80;99.90;;;;;;5063383;28;20208;-73
2024/03/16 06:41:06;;;;;;;0.90;0.80;;;8.80;99.90;;;;;;5044239;28;20212;-73
2024/03/16 06:43:33;;;;;;;0.80;0.80;;;8.90;99.90;;;;;;5049428;28;20250;-73
2024/03/16 06:46:01;;;;;;;1.02;0.70;;;8.90;99.90;;;;;;5054901;28;20208;-72
2024/03/16 06:48:28;;;;;;;1.08;0.75;;;9.00;99.90;;;;;;5054607;28;20228;-73
2024/03/16 06:50:54;;;;;;;1.58;0.80;;;9.00;99.90;;;;;;5053880;28;20235;-73
2024/03/16 06:53:21;;;;;;;1.00;0.70;;;9.10;99.90;;;;;;5054723;28;20209;-72
2024/03/16 06:55:49;;;;;;;2.50;0.95;;;9.30;99.90;;;;;;5050051;28;20198;-73
2024/03/16 06:58:16;;;;;;;0.90;0.80;;;9.40;99.90;;;;;;5045422;28;20209;-72
2024/03/16 07:00:43;;;;;;;0.90;0.80;;;9.40;99.90;;;;;;5049961;28;20602;-73
2024/03/16 07:03:10;;;;;;;1.75;1.00;;;9.40;99.90;;;;;;5045150;28;20232;-73
2024/03/16 07:05:37;;;;;;;2.20;0.68;;;9.40;99.90;;;;;;5052526;28;20205;-73
2024/03/16 07:08:07;;;;;;;1.90;0.85;;;9.30;99.90;;;;;;5044145;28;20724;-73
2024/03/16 07:10:34;;;;;;;0.80;0.80;;;9.30;99.90;;;;;;5050324;28;20255;-73
2024/03/16 07:13:01;;;;;;;1.30;1.20;;;9.30;99.90;;;;;;5043213;28;20229;-73
2024/03/16 07:15:28;;;;;;;1.70;0.90;;;9.40;99.90;;;;;;5050654;28;20205;-73
2024/03/16 07:17:55;;;;;;;1.60;0.80;;;9.40;99.90;;;;;;5042266;28;20614;-73
2024/03/16 07:20:22;;;;;;;0.90;0.80;;;9.40;99.90;;;;;;5050235;28;20205;-73
2024/03/16 07:22:48;;;;;;;1.27;0.90;;;9.40;99.90;;;;;;5049693;28;20229;-73
2024/03/16 07:25:15;;;;;;;1.38;1.17;;;9.40;99.90;;;;;;5045007;28;20595;-73
2024/03/16 07:27:42;;;;;;;1.30;1.20;;;9.30;99.90;;;;;;5049995;28;20221;-73
2024/03/16 07:30:09;;;;;;;1.35;1.10;;;9.30;99.90;;;;;;5043650;28;20591;-73
2024/03/16 07:32:36;;;;;;;2.30;1.15;;;9.40;99.90;;;;;;5049899;28;20597;-72
2024/03/16 07:35:06;;;;;;;1.40;1.02;;;9.40;99.90;;;;;;5042775;28;20212;-73
2024/03/16 07:37:33;;;;;;;1.20;0.95;;;9.40;99.90;;;;;;5050078;28;20287;-73
2024/03/16 07:39:59;;;;;;;4.03;1.85;;;9.40;99.90;;;;;;5041640;28;20209;-73
2024/03/16 07:42:26;;;;;;;1.15;1.05;;;9.40;99.90;;;;;;5049776;28;20617;-73
2024/03/16 07:44:53;;;;;;;2.55;1.30;;;9.50;99.90;;;;;;5048382;28;20208;-72
2024/03/16 07:47:20;;;;;;;1.33;0.90;;;9.60;99.90;;;;;;5044461;28;20239;-73
2024/03/16 07:49:47;;;;;;;1.70;1.13;;;9.60;99.90;;;;;;5049349;28;20678;-73
2024/03/16 07:52:14;;;;;;;1.60;1.20;;;9.70;99.90;;;;;;5042849;28;20221;-73
2024/03/16 07:54:41;;;;;;;1.40;1.20;;;9.80;99.90;;;;;;5049659;28;20212;-73
2024/03/16 07:57:08;;;;;;;1.13;1.02;;;9.90;99.90;;;;;;5042519;28;20625;-73
2024/03/16 07:59:35;;;;;;;1.30;1.08;;;10.00;99.90;;;;;;5049551;28;20241;-73
2024/03/16 08:02:02;;;;;;;2.47;1.25;;;10.00;99.90;;;;;;5041153;28;20604;-73
2024/03/16 08:04:32;;;;;;;3.28;1.55;;;10.10;99.90;;;;;;5053264;28;20213;-73
2024/03/16 08:06:59;;;;;;;1.45;1.30;;;10.00;99.90;;;;;;5053439;28;20692;-73
2024/03/16 08:09:26;;;;;;;1.33;1.10;;;10.00;99.90;;;;;;5052949;28;20360;-73
2024/03/16 08:11:53;;;;;;;1.05;0.95;;;10.10;99.90;;;;;;5052768;28;20689;-73
2024/03/16 08:14:20;;;;;;;1.35;1.23;;;10.00;99.90;;;;;;5053273;28;20215;-73
2024/03/16 08:16:47;;;;;;;1.10;1.00;;;10.00;99.90;;;;;;5050954;28;20236;-73
2024/03/16 08:19:16;;;;;;;1.20;1.00;;;10.00;99.90;;;;;;5042070;28;20211;-73
2024/03/16 08:21:44;;;;;;;1.10;0.90;;;10.00;99.90;;;;;;5048690;28;20241;-72
2024/03/16 08:24:10;;;;;;;0.93;0.80;;;10.00;99.90;;;;;;5041472;28;20222;-73
2024/03/16 08:26:37;;;;;;;1.88;1.08;;;9.90;99.90;;;;;;5049267;28;20670;-72
2024/03/16 08:29:04;;;;;;;1.70;1.25;;;9.90;99.90;;;;;;5040388;28;20220;-72
2024/03/16 08:31:31;;;;;;;0.90;0.80;;;9.90;99.90;;;;;;5052330;28;20228;-73
2024/03/16 08:33:58;;;;;;;0.80;0.70;;;10.00;99.90;;;;;;5051963;28;20269;-73
2024/03/16 08:36:25;;;;;;;0.90;0.70;;;10.10;99.90;;;;;;5053009;28;20208;-72
2024/03/16 08:38:52;;;;;;;0.70;0.70;;;10.10;99.90;;;;;;5050338;28;20211;-73
2024/03/16 08:41:19;;;;;;;2.60;0.82;;;10.10;99.90;;;;;;5048973;28;20599;-72
2024/03/16 08:43:45;;;;;;;1.00;0.90;;;10.10;99.90;;;;;;5045406;28;20205;-73
2024/03/16 08:46:12;;;;;;;1.15;1.05;;;10.20;99.90;;;;;;5041206;28;20215;-72
2024/03/16 08:48:39;;;;;;;0.80;0.70;;;10.30;99.90;;;;;;5048787;28;20224;-72
2024/03/16 08:51:06;;;;;;;0.80;0.80;;;10.50;99.90;;;;;;5039207;28;20208;-73
2024/03/16 08:53:33;;;;;;;0.80;0.70;;;10.80;99.90;;;;;;5052752;28;20197;-72
2024/03/16 08:56:01;;;;;;;0.80;0.80;;;11.00;99.90;;;;;;5052448;28;20282;-73
2024/03/16 08:58:29;;;;;;;0.80;0.70;;;11.10;99.90;;;;;;5052745;28;20231;-73
2024/03/16 09:00:58;;;;;;;2.38;1.20;;;11.40;99.90;;;;;;5051991;28;20665;-72
2024/03/16 09:03:25;;;;;;;1.25;0.90;;;12.60;99.90;;;;;;5053118;28;20207;-72
2024/03/16 09:05:51;;;;;;;1.00;0.80;;;13.50;99.90;;;;;;5052400;28;20564;-73
2024/03/16 09:08:18;;;;;;;1.38;0.95;;;13.70;99.90;;;;;;5052583;28;20213;-73
2024/03/16 09:10:45;;;;;;;1.10;0.93;;;13.50;99.90;;;;;;5050669;28;20216;-73
2024/03/16 09:13:12;;;;;;;1.00;0.90;;;13.10;99.90;;;;;;5040077;28;20225;-72
2024/03/16 09:15:40;;;;;;;1.33;0.77;;;12.70;99.90;;;;;;5048720;28;20459;-72
2024/03/16 09:18:07;;;;;;;0.80;0.70;;;12.30;99.90;;;;;;5039224;28;20955;-72
2024/03/16 09:20:35;;;;;;;1.00;0.90;;;11.90;99.90;;;;;;5048755;28;20205;-73
2024/03/16 09:23:02;;;;;;;5.25;0.85;;;11.80;99.90;;;;;;5044445;28;20221;-73
2024/03/16 09:25:29;;;;;;;0.80;0.70;;;12.00;99.90;;;;;;5042036;28;20236;-72
2024/03/16 09:27:56;;;;;;;1.08;0.85;;;12.10;99.90;;;;;;5044378;28;20753;-73
2024/03/16 09:30:22;;;;;;;2.45;0.95;;;12.20;99.90;;;;;;5040816;28;20216;-73
2024/03/16 09:32:49;;;;;;;0.90;0.75;;;12.30;99.90;;;;;;5051653;28;20263;-72
2024/03/16 09:35:16;;;;;;;2.28;0.90;;;12.70;99.90;;;;;;5052389;28;20221;-73
2024/03/16 09:37:43;;;;;;;1.70;1.10;;;13.20;99.90;;;;;;5051757;28;20197;-72
2024/03/16 09:40:10;;;;;;;1.33;0.90;;;13.60;99.90;;;;;;5038785;28;20494;-73
2024/03/16 09:42:37;;;;;;;1.10;0.80;;;14.00;99.90;;;;;;5051950;28;20486;-73
2024/03/16 09:45:06;;;;;;;0.90;0.70;;;14.40;99.90;;;;;;5054235;28;20966;-73
2024/03/16 09:47:33;;;;;;;1.00;0.90;;;14.90;99.90;;;;;;5056030;28;20505;-73
2024/03/16 09:50:01;;;;;;;0.90;0.80;;;15.50;99.90;;;;;;5056008;28;20834;-73
2024/03/16 09:52:28;;;;;;;1.47;1.10;;;16.30;99.90;;;;;;5055515;28;20478;-74
2024/03/16 09:54:54;;;;;;;0.80;0.70;;;17.90;99.90;;;;;;5055387;28;20471;-72
2024/03/16 09:57:25;;;;;;;0.90;0.83;;;19.50;99.90;;;;;;5056114;28;20469;-72
2024/03/16 09:59:52;;;;;;;1.00;0.90;;;20.70;99.90;;;;;;5053019;28;20816;-72
2024/03/16 10:02:19;;;;;;;2.40;0.80;;;21.60;99.90;;;;;;5055384;28;20484;-72
2024/03/16 10:04:46;;;;;;;1.13;1.03;;;21.70;99.90;;;;;;5054816;28;20508;-72
2024/03/16 10:07:13;;;;;;;1.03;0.90;;;21.30;99.90;;;;;;5041907;28;20466;-72
2024/03/16 10:09:52;;;;;;;0.97;0.87;;;20.70;99.90;;;;;;5051694;28;20995;-72
2024/03/16 10:12:19;;;;;;;2.83;1.17;;;19.50;99.90;;;;;;5051662;28;20482;-72
2024/03/16 10:14:48;;;;;;;3.37;1.03;;;18.50;99.90;;;;;;5054795;28;20465;-71
2024/03/16 10:17:15;;;;;;;2.60;1.00;;;17.50;99.90;;;;;;5041184;28;20459;-72
2024/03/16 10:19:42;;;;;;;1.53;0.97;;;16.40;99.90;;;;;;5051505;28;20456;-72
2024/03/16 10:22:09;;;;;;;1.50;0.80;;;15.70;99.90;;;;;;5045534;28;20476;-74
2024/03/16 10:24:35;;;;;;;0.80;0.70;;;14.80;99.90;;;;;;5044183;28;20869;-71
2024/03/16 10:27:03;;;;;;;5.03;0.90;;;14.10;99.90;;;;;;5045798;28;20460;-72
2024/03/16 10:29:30;;;;;;;1.63;1.03;;;13.70;99.90;;;;;;5042759;28;20476;-72
2024/03/16 10:31:57;;;;;;;2.27;0.90;;;13.30;99.90;;;;;;5045221;28;20475;-72
2024/03/16 10:34:25;;;;;;;0.90;0.73;;;13.20;99.90;;;;;;5042462;28;20878;-74
2024/03/16 10:36:53;;;;;;;1.30;0.70;;;13.00;99.90;;;;;;5052620;28;20463;-72
2024/03/16 10:39:22;;;;;;;0.90;0.80;;;12.80;99.90;;;;;;5054768;28;20451;-74
2024/03/16 10:41:49;;;;;;;2.37;0.80;;;12.60;99.90;;;;;;5054176;28;20561;-74
2024/03/16 10:44:16;;;;;;;0.80;0.70;;;12.50;99.90;;;;;;5040605;28;20466;-74
2024/03/16 10:46:43;;;;;;;1.30;1.10;;;12.30;99.90;;;;;;5051342;28;20839;-74
2024/03/16 10:49:11;;;;;;;1.00;0.83;;;12.30;99.90;;;;;;5044587;28;20486;-74
2024/03/16 10:51:38;;;;;;;0.88;0.68;;;12.30;99.90;;;;;;5043011;28;20566;-74
2024/03/16 10:54:10;;;;;;;0.80;0.60;;;12.30;99.90;;;;;;5044721;28;20213;-74
2024/03/16 10:56:38;;;;;;;0.80;0.70;;;12.30;99.90;;;;;;5042517;28;20603;-73
2024/03/16 10:59:06;;;;;;;0.80;0.70;;;12.40;99.90;;;;;;5044471;28;20204;-72
2024/03/16 11:01:38;;;;;;;0.80;0.63;;;12.60;99.90;;;;;;5041579;28;20511;-74
2024/03/16 11:04:06;;;;;;;0.93;0.73;;;12.90;99.90;;;;;;5044889;28;20460;-72
2024/03/16 11:06:41;;;;;;;0.90;0.70;;;13.00;99.90;;;;;;5042060;28;20839;-74
2024/03/16 11:09:08;;;;;;;0.80;0.70;;;13.10;99.90;;;;;;5045041;28;20479;-74
2024/03/16 11:11:37;;;;;;;0.90;0.70;;;13.30;99.90;;;;;;5041403;28;20479;-74
2024/03/16 11:14:07;;;;;;;0.80;0.70;;;13.60;99.90;;;;;;5043892;28;20463;-72
2024/03/16 11:16:34;;;;;;;0.90;0.70;;;13.80;99.90;;;;;;5031955;28;20466;-72
2024/03/16 11:19:01;;;;;;;0.90;0.70;;;14.60;99.90;;;;;;5053769;28;20461;-72
2024/03/16 11:21:28;;;;;;;0.90;0.70;;;15.20;99.90;;;;;;5053647;28;20486;-71
2024/03/16 11:23:59;;;;;;;0.97;0.83;;;15.20;99.90;;;;;;5053989;28;20494;-71
2024/03/16 11:26:34;;;;;;;0.80;0.70;;;15.20;99.90;;;;;;5054978;28;20455;-74
2024/03/16 11:29:14;;;;;;;1.23;1.00;;;16.30;99.90;;;;;;5054041;28;20482;-74
2024/03/16 11:31:40;;;;;;;0.80;0.70;;;17.00;99.90;;;;;;5054577;28;20987;-72
2024/03/16 11:34:11;;;;;;;1.10;0.80;;;18.00;99.90;;;;;;5053616;28;20510;-72
2024/03/16 11:36:41;;;;;;;1.00;0.70;;;19.40;99.90;;;;;;5053963;28;20465;-72
2024/03/16 11:39:16;;;;;;;0.83;0.70;;;20.30;99.90;;;;;;5054113;28;20470;-72
2024/03/16 11:41:42;;;;;;;0.90;0.70;;;20.00;99.90;;;;;;5054605;28;20477;-72
2024/03/16 11:44:13;;;;;;;1.20;0.90;;;19.10;99.90;;;;;;5053553;28;20467;-72
2024/03/16 11:46:42;;;;;;;1.37;0.90;;;18.40;99.90;;;;;;5054329;28;20462;-75
2024/03/16 11:49:14;;;;;;;0.80;0.70;;;17.70;99.90;;;;;;5053615;28;20482;-72
2024/03/16 11:51:41;;;;;;;0.90;0.80;;;17.00;99.90;;;;;;5054081;28;20553;-73
2024/03/16 11:54:08;;;;;;;0.80;0.63;;;16.60;99.90;;;;;;5053010;28;20524;-72
2024/03/16 11:56:34;;;;;;;1.57;0.87;;;16.30;99.90;;;;;;5053528;28;20462;-72
2024/03/16 11:59:08;;;;;;;1.00;0.80;;;16.00;99.90;;;;;;5053333;28;20467;-73
2024/03/16 12:01:34;;;;;;;1.13;0.80;;;15.60;99.90;;;;;;5053947;28;20478;-73
2024/03/16 12:04:03;;;;;;;0.90;0.73;;;15.20;99.90;;;;;;5053250;28;20472;-72
2024/03/16 12:06:29;;;;;;;0.80;0.70;;;15.00;99.90;;;;;;5053783;28;20457;-74
2024/03/16 12:08:56;;;;;;;0.97;0.87;;;14.90;99.90;;;;;;5052093;28;20487;-73
2024/03/16 12:11:23;;;;;;;1.00;0.90;;;14.90;99.90;;;;;;5052762;28;20482;-73
2024/03/16 12:13:51;;;;;;;1.20;1.07;;;14.90;99.90;;;;;;5053178;28;20824;-73
2024/03/16 12:16:17;;;;;;;0.90;0.77;;;15.20;99.90;;;;;;5053057;28;20458;-73
2024/03/16 12:18:44;;;;;;;1.10;0.83;;;16.20;99.90;;;;;;5046456;28;20929;-73
2024/03/16 12:21:12;;;;;;;1.57;0.70;;;17.10;99.90;;;;;;5040227;28;20468;-73
2024/03/16 12:23:39;;;;;;;1.07;0.90;;;17.20;99.90;;;;;;5039509;28;20467;-73
2024/03/16 12:26:05;;;;;;;1.13;0.90;;;17.00;99.90;;;;;;5040751;28;20816;-73
2024/03/16 12:28:32;;;;;;;0.90;0.80;;;16.90;99.90;;;;;;5038152;28;20479;-73
2024/03/16 12:30:59;;;;;;;0.90;0.80;;;16.60;99.90;;;;;;5039932;28;20463;-73
2024/03/16 12:33:27;;;;;;;1.00;0.90;;;16.40;99.90;;;;;;5037541;28;20467;-73
2024/03/16 12:35:53;;;;;;;0.90;0.80;;;16.20;99.90;;;;;;5040801;28;20948;-73
2024/03/16 12:38:20;;;;;;;0.93;0.80;;;16.00;99.90;;;;;;5040303;28;20470;-73
2024/03/16 12:40:46;;;;;;;0.80;0.80;;;16.10;99.90;;;;;;5039433;28;20456;-73
2024/03/16 12:43:12;;;;;;;0.93;0.80;;;16.30;99.90;;;;;;5039956;28;21014;-73
2024/03/16 12:45:38;;;;;;;1.10;0.80;;;16.50;99.90;;;;;;5038921;28;20886;-73
2024/03/16 12:48:05;;;;;;;1.10;1.00;;;16.40;99.90;;;;;;5040869;28;20460;-74
2024/03/16 12:50:31;;;;;;;1.20;1.00;;;16.20;99.90;;;;;;5041726;28;20459;-73
2024/03/16 12:52:58;;;;;;;0.90;0.80;;;16.50;99.90;;;;;;5040888;28;20495;-73